createdAt,value
2018-12-06T00:00:14.462Z,95.75
2018-12-06T00:01:14.454Z,96.06
2018-12-06T00:02:14.442Z,95.85
2018-12-06T00:03:14.430Z,95.85
2018-12-06T00:04:14.418Z,95.85
2018-12-06T00:05:14.412Z,96.02
2018-12-06T00:06:14.397Z,95.91
2018-12-06T00:07:14.386Z,95.65
2018-12-06T00:08:14.385Z,95.55
2018-12-06T00:09:14.366Z,95.95
2018-12-06T00:10:14.352Z,96.58
2018-12-06T00:11:14.341Z,97.34
2018-12-06T00:12:14.331Z,97.76
2018-12-06T00:13:14.322Z,98.07
2018-12-06T00:14:14.309Z,98.27
2018-12-06T00:15:14.297Z,98.22
2018-12-06T00:16:14.287Z,98.33
2018-12-06T00:17:14.275Z,98.12
2018-12-06T00:18:14.267Z,98.02
2018-12-06T00:19:14.254Z,98.12
2018-12-06T00:20:14.245Z,97.71
2018-12-06T00:21:14.233Z,97.09
2018-12-06T00:22:14.220Z,96.88
2018-12-06T00:23:14.211Z,96.99
2018-12-06T00:24:14.198Z,96.88
2018-12-06T00:25:14.187Z,96.78
2018-12-06T00:26:14.175Z,96.99
2018-12-06T00:27:14.164Z,96.78
2018-12-06T00:28:14.155Z,96.68
2018-12-06T00:29:14.146Z,96.16
2018-12-06T00:30:14.134Z,96.68
2018-12-06T00:31:14.120Z,96.74
2018-12-06T00:32:14.111Z,96.99
2018-12-06T00:33:14.101Z,97.05
2018-12-06T00:34:14.087Z,96.94
2018-12-06T00:35:14.076Z,96.94
2018-12-06T00:36:14.067Z,96.94
2018-12-06T00:37:14.055Z,96.74
2018-12-06T00:38:14.043Z,96.22
2018-12-06T00:39:14.030Z,96.12
2018-12-06T00:40:14.021Z,96.33
2018-12-06T00:41:14.007Z,96.33
2018-12-06T00:42:13.999Z,96.33
2018-12-06T00:43:13.989Z,96.43
2018-12-06T00:44:13.978Z,96.12
2018-12-06T00:45:13.966Z,96.22
2018-12-06T00:46:13.954Z,96.33
2018-12-06T00:47:13.945Z,96.12
2018-12-06T00:48:13.933Z,95.81
2018-12-06T00:49:13.920Z,96.12
2018-12-06T00:50:13.909Z,96.53
2018-12-06T00:51:13.900Z,96.43
2018-12-06T00:52:13.886Z,96.33
2018-12-06T00:53:13.879Z,96.12
2018-12-06T00:54:13.866Z,96.12
2018-12-06T00:55:13.856Z,96.22
2018-12-06T00:56:13.847Z,96.43
2018-12-06T00:57:13.835Z,96.63
2018-12-06T00:58:13.822Z,96.63
2018-12-06T00:59:13.810Z,96.63
2018-12-06T01:00:13.802Z,96.84
2018-12-06T01:01:13.787Z,96.84
2018-12-06T01:02:13.778Z,96.69
2018-12-06T01:03:13.765Z,96.69
2018-12-06T01:04:13.755Z,96.74
2018-12-06T01:05:13.744Z,96.84
2018-12-06T01:06:13.733Z,96.53
2018-12-06T01:07:13.723Z,96.53
2018-12-06T01:08:13.709Z,96.94
2018-12-06T01:09:13.700Z,97.15
2018-12-06T01:10:13.691Z,97.15
2018-12-06T01:11:13.678Z,96.63
2018-12-06T01:12:13.670Z,96.53
2018-12-06T01:13:13.658Z,96.33
2018-12-06T01:14:13.645Z,95.81
2018-12-06T01:15:13.635Z,95.87
2018-12-06T01:16:13.626Z,96.08
2018-12-06T01:17:13.616Z,96.38
2018-12-06T01:18:13.601Z,96.59
2018-12-06T01:19:13.591Z,96.69
2018-12-06T01:20:13.576Z,96.80
2018-12-06T01:21:13.569Z,96.59
2018-12-06T01:22:13.558Z,96.59
2018-12-06T01:23:13.550Z,96.59
2018-12-06T01:24:13.536Z,96.59
2018-12-06T01:25:13.526Z,96.59
2018-12-06T01:26:13.514Z,96.59
2018-12-06T01:27:13.501Z,96.59
2018-12-06T01:28:13.494Z,96.28
2018-12-06T01:29:13.482Z,95.45
2018-12-06T01:30:13.468Z,95.87
2018-12-06T01:31:13.457Z,96.03
2018-12-06T01:32:13.457Z,95.83
2018-12-06T01:33:13.435Z,95.62
2018-12-06T01:34:13.424Z,95.83
2018-12-06T01:35:13.413Z,95.77
2018-12-06T01:36:13.407Z,95.45
2018-12-06T01:37:13.395Z,96.08
2018-12-06T01:38:13.397Z,96.59
2018-12-06T01:39:13.371Z,96.80
2018-12-06T01:40:13.360Z,96.90
2018-12-06T01:41:13.347Z,96.80
2018-12-06T01:42:13.346Z,96.90
2018-12-06T01:43:13.323Z,96.90
2018-12-06T01:44:13.318Z,96.90
2018-12-06T01:45:13.304Z,97.00
2018-12-06T01:46:13.298Z,96.90
2018-12-06T01:47:13.282Z,96.80
2018-12-06T01:48:13.272Z,96.69
2018-12-06T01:49:13.259Z,96.69
2018-12-06T01:50:13.248Z,96.90
2018-12-06T01:51:13.235Z,96.85
2018-12-06T01:52:13.225Z,96.55
2018-12-06T01:53:13.216Z,96.24
2018-12-06T01:54:13.200Z,96.24
2018-12-06T01:55:13.190Z,96.34
2018-12-06T01:56:13.189Z,96.44
2018-12-06T01:57:13.168Z,96.44
2018-12-06T01:58:13.158Z,96.65
2018-12-06T01:59:13.144Z,96.80
2018-12-06T02:00:13.138Z,96.90
2018-12-06T02:01:13.124Z,96.80
2018-12-06T02:02:13.111Z,97.10
2018-12-06T02:03:13.103Z,97.52
2018-12-06T02:04:13.091Z,97.52
2018-12-06T02:05:13.078Z,97.83
2018-12-06T02:06:13.069Z,97.93
2018-12-06T02:07:13.059Z,98.03
2018-12-06T02:08:13.047Z,97.93
2018-12-06T02:09:13.037Z,98.03
2018-12-06T02:10:13.023Z,98.03
2018-12-06T02:11:13.012Z,97.93
2018-12-06T02:12:13.001Z,97.93
2018-12-06T02:13:12.989Z,97.83
2018-12-06T02:14:12.981Z,97.83
2018-12-06T02:15:12.971Z,97.83
2018-12-06T02:16:12.956Z,97.72
2018-12-06T02:17:12.951Z,97.72
2018-12-06T02:18:12.936Z,97.72
2018-12-06T02:19:12.923Z,97.72
2018-12-06T02:20:12.914Z,97.72
2018-12-06T02:21:12.901Z,97.62
2018-12-06T02:22:12.893Z,97.62
2018-12-06T02:23:12.883Z,97.83
2018-12-06T02:24:12.866Z,97.83
2018-12-06T02:25:12.854Z,97.83
2018-12-06T02:26:12.844Z,97.72
2018-12-06T02:27:12.835Z,97.52
2018-12-06T02:28:12.822Z,97.10
2018-12-06T02:29:12.810Z,96.80
2018-12-06T02:30:12.800Z,96.69
2018-12-06T02:31:12.789Z,97.10
2018-12-06T02:32:12.781Z,97.52
2018-12-06T02:33:12.768Z,97.62
2018-12-06T02:34:12.760Z,97.52
2018-12-06T02:35:12.745Z,97.31
2018-12-06T02:36:12.734Z,96.69
2018-12-06T02:37:12.724Z,95.45
2018-12-06T02:38:12.720Z,95.35
2018-12-06T02:39:12.704Z,95.56
2018-12-06T02:40:12.690Z,95.72
2018-12-06T02:41:12.679Z,96.03
2018-12-06T02:42:12.667Z,96.34
2018-12-06T02:43:12.656Z,96.55
2018-12-06T02:44:12.646Z,96.65
2018-12-06T02:45:12.893Z,96.75
2018-12-06T02:46:12.623Z,96.75
2018-12-06T02:47:12.616Z,96.96
2018-12-06T02:48:12.602Z,96.96
2018-12-06T02:49:12.588Z,96.85
2018-12-06T02:50:12.580Z,96.96
2018-12-06T02:51:12.567Z,97.06
2018-12-06T02:52:12.557Z,96.96
2018-12-06T02:53:12.544Z,96.44
2018-12-06T02:54:12.538Z,95.20
2018-12-06T02:55:12.521Z,95.62
2018-12-06T02:56:12.514Z,96.03
2018-12-06T02:57:12.500Z,96.13
2018-12-06T02:58:12.489Z,96.24
2018-12-06T02:59:12.479Z,96.34
2018-12-06T03:00:12.471Z,96.44
2018-12-06T03:01:12.455Z,96.24
2018-12-06T03:02:12.452Z,95.31
2018-12-06T03:03:12.437Z,95.00
2018-12-06T03:04:12.425Z,95.72
2018-12-06T03:05:12.412Z,95.83
2018-12-06T03:06:12.404Z,94.69
2018-12-06T03:07:12.392Z,95.20
2018-12-06T03:08:12.379Z,96.28
2018-12-06T03:09:12.368Z,96.90
2018-12-06T03:10:12.429Z,97.31
2018-12-06T03:11:12.349Z,97.52
2018-12-06T03:12:12.335Z,97.52
2018-12-06T03:13:12.326Z,97.41
2018-12-06T03:14:12.315Z,97.62
2018-12-06T03:15:12.304Z,97.62
2018-12-06T03:16:12.294Z,97.58
2018-12-06T03:17:12.282Z,97.31
2018-12-06T03:18:12.270Z,96.80
2018-12-06T03:19:12.266Z,97.00
2018-12-06T03:20:12.254Z,97.10
2018-12-06T03:21:12.237Z,97.31
2018-12-06T03:22:12.226Z,96.38
2018-12-06T03:23:12.215Z,95.97
2018-12-06T03:24:12.204Z,96.28
2018-12-06T03:25:12.191Z,96.13
2018-12-06T03:26:12.181Z,96.34
2018-12-06T03:27:12.172Z,96.55
2018-12-06T03:28:12.165Z,96.44
2018-12-06T03:29:12.146Z,96.44
2018-12-06T03:30:12.138Z,96.55
2018-12-06T03:31:12.126Z,96.75
2018-12-06T03:32:12.115Z,96.85
2018-12-06T03:33:12.105Z,96.08
2018-12-06T03:34:12.095Z,95.00
2018-12-06T03:35:12.083Z,94.90
2018-12-06T03:36:12.071Z,95.41
2018-12-06T03:37:12.061Z,95.92
2018-12-06T03:38:12.046Z,96.24
2018-12-06T03:39:12.039Z,96.34
2018-12-06T03:40:12.024Z,95.92
2018-12-06T03:41:12.013Z,94.48
2018-12-06T03:42:12.001Z,94.48
2018-12-06T03:43:11.992Z,94.59
2018-12-06T03:44:11.981Z,94.79
2018-12-06T03:45:11.969Z,95.10
2018-12-06T03:46:11.959Z,95.72
2018-12-06T03:47:11.946Z,95.67
2018-12-06T03:48:11.938Z,95.58
2018-12-06T03:49:11.925Z,95.58
2018-12-06T03:50:11.915Z,95.58
2018-12-06T03:51:11.913Z,95.88
2018-12-06T03:52:11.898Z,95.67
2018-12-06T03:53:11.882Z,95.20
2018-12-06T03:54:11.870Z,95.26
2018-12-06T03:55:11.859Z,95.58
2018-12-06T03:56:11.852Z,95.67
2018-12-06T03:57:11.837Z,95.78
2018-12-06T03:58:11.823Z,95.67
2018-12-06T03:59:11.816Z,95.16
2018-12-06T04:00:11.803Z,94.85
2018-12-06T04:01:11.801Z,95.16
2018-12-06T04:02:11.781Z,95.47
2018-12-06T04:03:11.770Z,95.58
2018-12-06T04:04:11.760Z,95.26
2018-12-06T04:05:11.750Z,94.85
2018-12-06T04:06:11.739Z,94.75
2018-12-06T04:07:11.727Z,94.13
2018-12-06T04:08:11.716Z,94.03
2018-12-06T04:09:11.704Z,93.82
2018-12-06T04:10:11.695Z,94.85
2018-12-06T04:11:11.683Z,95.47
2018-12-06T04:12:11.671Z,96.09
2018-12-06T04:13:11.659Z,96.09
2018-12-06T04:14:11.650Z,95.88
2018-12-06T04:15:11.638Z,95.88
2018-12-06T04:16:11.626Z,95.88
2018-12-06T04:17:11.617Z,95.67
2018-12-06T04:18:11.607Z,95.58
2018-12-06T04:19:11.594Z,95.67
2018-12-06T04:20:11.584Z,95.47
2018-12-06T04:21:11.572Z,94.54
2018-12-06T04:22:11.562Z,94.40
2018-12-06T04:23:11.554Z,94.81
2018-12-06T04:24:11.536Z,95.12
2018-12-06T04:25:11.526Z,95.12
2018-12-06T04:26:11.516Z,95.01
2018-12-06T04:27:11.505Z,95.67
2018-12-06T04:28:11.496Z,96.19
2018-12-06T04:29:11.482Z,96.30
2018-12-06T04:30:11.473Z,95.67
2018-12-06T04:31:11.469Z,95.37
2018-12-06T04:32:11.451Z,95.47
2018-12-06T04:33:11.437Z,96.09
2018-12-06T04:34:11.434Z,96.09
2018-12-06T04:35:11.418Z,96.19
2018-12-06T04:36:11.406Z,95.98
2018-12-06T04:37:11.394Z,95.88
2018-12-06T04:38:11.384Z,95.98
2018-12-06T04:39:11.372Z,95.98
2018-12-06T04:40:11.368Z,96.09
2018-12-06T04:41:11.351Z,95.58
2018-12-06T04:42:11.343Z,95.06
2018-12-06T04:43:11.330Z,95.67
2018-12-06T04:44:11.317Z,95.88
2018-12-06T04:45:11.311Z,96.19
2018-12-06T04:46:11.293Z,96.60
2018-12-06T04:47:11.282Z,96.60
2018-12-06T04:48:11.274Z,96.50
2018-12-06T04:49:11.263Z,96.50
2018-12-06T04:50:11.251Z,96.71
2018-12-06T04:51:11.241Z,96.81
2018-12-06T04:52:11.228Z,96.60
2018-12-06T04:53:11.226Z,96.56
2018-12-06T04:54:11.206Z,96.56
2018-12-06T04:55:11.197Z,96.45
2018-12-06T04:56:11.183Z,96.45
2018-12-06T04:57:11.171Z,96.35
2018-12-06T04:58:11.163Z,95.94
2018-12-06T04:59:11.152Z,95.63
2018-12-06T05:00:11.139Z,95.33
2018-12-06T05:01:11.137Z,95.63
2018-12-06T05:02:11.117Z,95.63
2018-12-06T05:03:11.107Z,96.05
2018-12-06T05:04:11.097Z,96.14
2018-12-06T05:05:11.085Z,96.14
2018-12-06T05:06:11.074Z,96.14
2018-12-06T05:07:11.061Z,96.25
2018-12-06T05:08:11.058Z,96.45
2018-12-06T05:09:11.041Z,96.60
2018-12-06T05:10:11.029Z,96.81
2018-12-06T05:11:11.018Z,97.02
2018-12-06T05:12:11.007Z,97.22
2018-12-06T05:13:10.995Z,97.32
2018-12-06T05:14:10.983Z,97.43
2018-12-06T05:15:10.974Z,97.53
2018-12-06T05:16:10.963Z,97.53
2018-12-06T05:17:10.951Z,97.53
2018-12-06T05:18:10.939Z,97.43
2018-12-06T05:19:10.933Z,97.22
2018-12-06T05:20:10.920Z,97.22
2018-12-06T05:21:10.906Z,97.32
2018-12-06T05:22:10.894Z,97.32
2018-12-06T05:23:10.886Z,97.43
2018-12-06T05:24:10.874Z,97.32
2018-12-06T05:25:10.861Z,97.12
2018-12-06T05:26:10.851Z,97.02
2018-12-06T05:27:10.840Z,96.91
2018-12-06T05:28:10.833Z,97.02
2018-12-06T05:29:10.815Z,96.91
2018-12-06T05:30:10.805Z,96.81
2018-12-06T05:31:10.796Z,96.91
2018-12-06T05:32:10.783Z,97.02
2018-12-06T05:33:10.774Z,97.02
2018-12-06T05:34:10.762Z,97.02
2018-12-06T05:35:10.751Z,97.12
2018-12-06T05:36:10.739Z,96.97
2018-12-06T05:37:10.728Z,96.97
2018-12-06T05:38:10.716Z,96.97
2018-12-06T05:39:10.705Z,96.87
2018-12-06T05:40:10.692Z,96.77
2018-12-06T05:41:10.685Z,96.97
2018-12-06T05:42:10.673Z,96.87
2018-12-06T05:43:10.660Z,96.87
2018-12-06T05:44:10.649Z,96.97
2018-12-06T05:45:10.640Z,96.97
2018-12-06T05:46:10.629Z,96.97
2018-12-06T05:47:10.617Z,96.87
2018-12-06T05:48:10.607Z,96.77
2018-12-06T05:49:10.593Z,96.87
2018-12-06T05:50:10.584Z,96.77
2018-12-06T05:51:10.574Z,96.87
2018-12-06T05:52:10.559Z,96.87
2018-12-06T05:53:10.551Z,96.77
2018-12-06T05:54:10.547Z,96.66
2018-12-06T05:55:10.529Z,96.66
2018-12-06T05:56:10.516Z,96.66
2018-12-06T05:57:10.503Z,96.56
2018-12-06T05:58:10.494Z,96.66
2018-12-06T05:59:10.482Z,96.66
2018-12-06T06:00:10.473Z,96.66
2018-12-06T06:01:10.459Z,96.66
2018-12-06T06:02:10.451Z,96.77
2018-12-06T06:03:10.446Z,96.87
2018-12-06T06:04:10.425Z,96.87
2018-12-06T06:05:10.418Z,96.87
2018-12-06T06:06:10.411Z,96.87
2018-12-06T06:07:10.393Z,96.97
2018-12-06T06:08:10.388Z,97.07
2018-12-06T06:09:10.370Z,97.07
2018-12-06T06:10:10.361Z,97.22
2018-12-06T06:11:10.347Z,97.43
2018-12-06T06:12:10.339Z,97.63
2018-12-06T06:13:10.327Z,97.63
2018-12-06T06:14:10.313Z,97.63
2018-12-06T06:15:10.307Z,97.63
2018-12-06T06:16:10.292Z,97.53
2018-12-06T06:17:10.283Z,97.63
2018-12-06T06:18:10.283Z,97.74
2018-12-06T06:19:10.259Z,97.74
2018-12-06T06:20:10.253Z,97.74
2018-12-06T06:21:10.241Z,97.74
2018-12-06T06:22:10.227Z,97.74
2018-12-06T06:23:10.222Z,97.74
2018-12-06T06:24:10.203Z,97.84
2018-12-06T06:25:10.200Z,97.94
2018-12-06T06:26:10.180Z,97.94
2018-12-06T06:27:10.169Z,97.84
2018-12-06T06:28:10.159Z,97.84
2018-12-06T06:29:10.148Z,97.84
2018-12-06T06:30:10.139Z,97.94
2018-12-06T06:31:10.126Z,97.94
2018-12-06T06:32:10.117Z,97.84
2018-12-06T06:33:10.110Z,97.84
2018-12-06T06:34:10.093Z,97.74
2018-12-06T06:35:10.089Z,97.63
2018-12-06T06:36:10.069Z,97.84
2018-12-06T06:37:10.058Z,97.94
2018-12-06T06:38:10.051Z,98.05
2018-12-06T06:39:10.302Z,98.05
2018-12-06T06:40:10.029Z,98.15
2018-12-06T06:41:10.019Z,98.25
2018-12-06T06:42:10.005Z,98.25
2018-12-06T06:43:09.994Z,98.15
2018-12-06T06:44:09.981Z,98.15
2018-12-06T06:45:09.971Z,98.25
2018-12-06T06:46:09.962Z,98.31
2018-12-06T06:47:09.955Z,98.10
2018-12-06T06:48:09.939Z,98.00
2018-12-06T06:49:13.691Z,98.00
2018-12-06T06:50:09.922Z,98.00
2018-12-06T06:51:09.903Z,97.90
2018-12-06T06:52:09.898Z,97.79
2018-12-06T06:53:09.881Z,97.79
2018-12-06T06:54:09.872Z,97.59
2018-12-06T06:55:09.863Z,97.59
2018-12-06T06:56:09.850Z,97.49
2018-12-06T06:57:09.837Z,97.49
2018-12-06T06:58:09.827Z,97.49
2018-12-06T06:59:09.816Z,97.59
2018-12-06T07:00:09.803Z,97.69
2018-12-06T07:01:09.795Z,97.69
2018-12-06T07:02:09.782Z,97.79
2018-12-06T07:03:09.772Z,97.90
2018-12-06T07:04:09.762Z,97.90
2018-12-06T07:05:09.751Z,97.79
2018-12-06T07:06:09.738Z,97.79
2018-12-06T07:07:09.727Z,97.79
2018-12-06T07:08:09.717Z,97.79
2018-12-06T07:09:09.704Z,97.79
2018-12-06T07:10:09.774Z,97.79
2018-12-06T07:11:09.683Z,97.79
2018-12-06T07:12:09.671Z,97.79
2018-12-06T07:13:09.661Z,97.94
2018-12-06T07:14:09.649Z,97.94
2018-12-06T07:15:09.649Z,98.15
2018-12-06T07:16:09.627Z,98.25
2018-12-06T07:17:09.614Z,98.35
2018-12-06T07:18:09.603Z,98.35
2018-12-06T07:19:09.594Z,98.35
2018-12-06T07:20:09.593Z,98.31
2018-12-06T07:21:09.571Z,98.31
2018-12-06T07:22:09.565Z,98.21
2018-12-06T07:23:09.551Z,98.21
2018-12-06T07:24:09.542Z,98.21
2018-12-06T07:25:09.525Z,98.21
2018-12-06T07:26:09.516Z,98.10
2018-12-06T07:27:09.505Z,98.10
2018-12-06T07:28:09.494Z,98.10
2018-12-06T07:29:09.483Z,98.00
2018-12-06T07:30:12.437Z,97.90
2018-12-06T07:31:09.461Z,97.90
2018-12-06T07:32:09.450Z,97.90
2018-12-06T07:33:09.438Z,98.00
2018-12-06T07:34:09.429Z,98.10
2018-12-06T07:35:09.441Z,98.21
2018-12-06T07:36:09.437Z,98.21
2018-12-06T07:37:09.404Z,98.00
2018-12-06T07:38:09.383Z,98.10
2018-12-06T07:39:09.370Z,98.21
2018-12-06T07:40:09.361Z,98.21
2018-12-06T07:41:09.349Z,98.21
2018-12-06T07:42:09.340Z,98.10
2018-12-06T07:43:09.327Z,98.10
2018-12-06T07:44:09.320Z,98.21
2018-12-06T07:45:09.313Z,98.21
2018-12-06T07:46:09.294Z,98.10
2018-12-06T07:47:09.282Z,98.26
2018-12-06T07:48:09.271Z,98.16
2018-12-06T07:49:09.262Z,98.05
2018-12-06T07:50:09.252Z,97.96
2018-12-06T07:51:09.237Z,97.85
2018-12-06T07:52:09.232Z,97.75
2018-12-06T07:53:09.223Z,97.75
2018-12-06T07:54:09.211Z,97.85
2018-12-06T07:55:09.194Z,97.85
2018-12-06T07:56:09.185Z,97.85
2018-12-06T07:57:09.175Z,97.96
2018-12-06T07:58:09.165Z,97.96
2018-12-06T07:59:09.176Z,97.96
2018-12-06T08:00:09.146Z,97.85
2018-12-06T08:01:09.134Z,97.85
2018-12-06T08:02:09.122Z,97.85
2018-12-06T08:03:09.110Z,97.96
2018-12-06T08:04:09.095Z,97.96
2018-12-06T08:05:09.084Z,97.96
2018-12-06T08:06:09.075Z,98.16
2018-12-06T08:07:09.064Z,98.05
2018-12-06T08:08:09.060Z,97.96
2018-12-06T08:09:09.041Z,97.85
2018-12-06T08:10:09.029Z,97.85
2018-12-06T08:11:09.019Z,97.85
2018-12-06T08:12:09.005Z,97.75
2018-12-06T08:13:08.998Z,97.75
2018-12-06T08:14:08.985Z,97.75
2018-12-06T08:15:08.974Z,97.85
2018-12-06T08:16:08.970Z,97.85
2018-12-06T08:17:08.951Z,97.75
2018-12-06T08:18:08.959Z,97.85
2018-12-06T08:19:08.932Z,97.75
2018-12-06T08:20:08.917Z,97.75
2018-12-06T08:21:08.906Z,97.60
2018-12-06T08:22:08.897Z,97.60
2018-12-06T08:23:08.887Z,97.70
2018-12-06T08:24:08.871Z,97.50
2018-12-06T08:25:08.860Z,97.39
2018-12-06T08:26:08.851Z,97.39
2018-12-06T08:27:08.840Z,97.39
2018-12-06T08:28:08.841Z,97.50
2018-12-06T08:29:08.816Z,97.60
2018-12-06T08:30:08.804Z,97.60
2018-12-06T08:31:08.797Z,97.60
2018-12-06T08:32:08.789Z,97.60
2018-12-06T08:33:08.777Z,97.60
2018-12-06T08:34:08.762Z,97.60
2018-12-06T08:35:08.750Z,97.50
2018-12-06T08:36:08.741Z,97.39
2018-12-06T08:37:08.729Z,97.29
2018-12-06T08:38:08.715Z,97.19
2018-12-06T08:39:08.710Z,97.08
2018-12-06T08:40:08.695Z,97.29
2018-12-06T08:41:08.684Z,97.39
2018-12-06T08:42:08.684Z,97.39
2018-12-06T08:43:08.686Z,97.19
2018-12-06T08:44:08.647Z,97.50
2018-12-06T08:45:08.641Z,97.60
2018-12-06T08:46:08.628Z,97.50
2018-12-06T08:47:08.616Z,97.39
2018-12-06T08:48:08.605Z,97.50
2018-12-06T08:49:08.591Z,97.60
2018-12-06T08:50:08.584Z,97.70
2018-12-06T08:51:08.575Z,97.50
2018-12-06T08:52:08.562Z,97.35
2018-12-06T08:53:08.575Z,97.39
2018-12-06T08:54:08.539Z,97.29
2018-12-06T08:55:08.524Z,97.50
2018-12-06T08:56:08.516Z,97.60
2018-12-06T08:57:08.512Z,97.70
2018-12-06T08:58:08.492Z,97.70
2018-12-06T08:59:08.484Z,97.70
2018-12-06T09:00:08.474Z,97.80
2018-12-06T09:01:08.648Z,98.01
2018-12-06T09:02:08.452Z,97.80
2018-12-06T09:03:08.438Z,97.70
2018-12-06T09:04:08.427Z,97.55
2018-12-06T09:05:08.419Z,97.45
2018-12-06T09:06:08.403Z,97.55
2018-12-06T09:07:08.391Z,97.55
2018-12-06T09:08:08.382Z,97.35
2018-12-06T09:09:08.371Z,97.25
2018-12-06T09:10:08.367Z,97.14
2018-12-06T09:11:08.348Z,97.14
2018-12-06T09:12:08.335Z,97.14
2018-12-06T09:13:08.331Z,97.04
2018-12-06T09:14:08.315Z,97.04
2018-12-06T09:15:08.308Z,97.04
2018-12-06T09:16:08.291Z,97.04
2018-12-06T09:17:08.280Z,97.25
2018-12-06T09:18:08.279Z,97.35
2018-12-06T09:19:08.258Z,97.45
2018-12-06T09:20:08.255Z,97.35
2018-12-06T09:21:08.270Z,97.25
2018-12-06T09:22:08.234Z,97.20
2018-12-06T09:23:08.216Z,97.30
2018-12-06T09:24:08.202Z,97.20
2018-12-06T09:25:08.193Z,97.20
2018-12-06T09:26:08.179Z,97.00
2018-12-06T09:27:08.181Z,97.20
2018-12-06T09:28:08.160Z,97.30
2018-12-06T09:29:08.146Z,97.00
2018-12-06T09:30:08.147Z,97.10
2018-12-06T09:31:08.124Z,97.10
2018-12-06T09:32:08.126Z,97.20
2018-12-06T09:33:08.106Z,97.10
2018-12-06T09:34:08.092Z,97.20
2018-12-06T09:35:08.088Z,97.00
2018-12-06T09:36:08.070Z,97.00
2018-12-06T09:37:08.082Z,97.00
2018-12-06T09:38:08.048Z,96.89
2018-12-06T09:39:08.039Z,97.10
2018-12-06T09:40:08.025Z,97.10
2018-12-06T09:41:08.013Z,97.30
2018-12-06T09:42:08.005Z,97.20
2018-12-06T09:43:07.993Z,97.10
2018-12-06T09:44:07.980Z,97.20
2018-12-06T09:45:07.977Z,97.41
2018-12-06T09:46:07.960Z,97.51
2018-12-06T09:47:07.950Z,97.30
2018-12-06T09:48:07.941Z,97.26
2018-12-06T09:49:07.927Z,97.16
2018-12-06T09:50:07.918Z,97.16
2018-12-06T09:51:07.902Z,96.85
2018-12-06T09:52:07.893Z,97.05
2018-12-06T09:53:07.881Z,96.80
2018-12-06T09:54:07.892Z,96.29
2018-12-06T09:55:07.862Z,96.08
2018-12-06T09:56:07.848Z,96.08
2018-12-06T09:57:07.836Z,96.50
2018-12-06T09:58:07.826Z,96.55
2018-12-06T09:59:07.816Z,96.35
2018-12-06T10:00:07.806Z,96.25
2018-12-06T10:01:07.799Z,96.04
2018-12-06T10:02:07.783Z,96.00
2018-12-06T10:03:07.773Z,95.58
2018-12-06T10:04:07.759Z,95.38
2018-12-06T10:05:07.750Z,95.32
2018-12-06T10:06:07.738Z,95.17
2018-12-06T10:07:07.728Z,95.48
2018-12-06T10:08:07.794Z,95.69
2018-12-06T10:09:07.705Z,95.38
2018-12-06T10:10:07.698Z,95.38
2018-12-06T10:11:07.686Z,95.38
2018-12-06T10:12:07.674Z,95.07
2018-12-06T10:13:07.661Z,95.07
2018-12-06T10:14:07.654Z,94.83
2018-12-06T10:15:07.641Z,94.66
2018-12-06T10:16:07.629Z,94.97
2018-12-06T10:17:07.678Z,95.28
2018-12-06T10:18:07.609Z,95.17
2018-12-06T10:19:07.602Z,95.48
2018-12-06T10:20:07.584Z,95.38
2018-12-06T10:21:07.574Z,95.48
2018-12-06T10:22:07.564Z,95.69
2018-12-06T10:23:07.554Z,95.17
2018-12-06T10:24:07.542Z,95.44
2018-12-06T10:25:07.530Z,95.44
2018-12-06T10:26:07.522Z,95.64
2018-12-06T10:27:07.510Z,95.64
2018-12-06T10:28:07.498Z,95.34
2018-12-06T10:29:07.486Z,95.13
2018-12-06T10:30:07.479Z,94.92
2018-12-06T10:31:07.468Z,95.23
2018-12-06T10:32:07.457Z,95.13
2018-12-06T10:33:07.448Z,95.09
2018-12-06T10:34:07.431Z,94.88
2018-12-06T10:35:07.421Z,94.88
2018-12-06T10:36:07.413Z,95.19
2018-12-06T10:37:07.399Z,94.98
2018-12-06T10:38:07.390Z,95.09
2018-12-06T10:39:07.376Z,94.98
2018-12-06T10:40:07.426Z,94.88
2018-12-06T10:41:07.355Z,94.94
2018-12-06T10:42:07.350Z,94.73
2018-12-06T10:43:07.353Z,94.53
2018-12-06T10:44:07.322Z,94.32
2018-12-06T10:45:07.310Z,94.02
2018-12-06T10:46:07.299Z,94.12
2018-12-06T10:47:07.293Z,93.98
2018-12-06T10:48:07.278Z,94.18
2018-12-06T10:49:07.284Z,94.28
2018-12-06T10:50:07.258Z,94.39
2018-12-06T10:51:07.695Z,94.28
2018-12-06T10:52:07.236Z,94.28
2018-12-06T10:53:07.225Z,94.69
2018-12-06T10:54:07.214Z,94.07
2018-12-06T10:55:07.202Z,94.28
2018-12-06T10:56:07.194Z,94.18
2018-12-06T10:57:07.180Z,94.39
2018-12-06T10:58:07.171Z,94.34
2018-12-06T10:59:07.156Z,93.93
2018-12-06T11:00:07.147Z,94.44
2018-12-06T11:01:07.139Z,94.54
2018-12-06T11:02:07.125Z,94.44
2018-12-06T11:03:07.117Z,94.14
2018-12-06T11:04:07.104Z,94.34
2018-12-06T11:05:07.215Z,94.34
2018-12-06T11:06:07.083Z,94.14
2018-12-06T11:07:07.073Z,93.73
2018-12-06T11:08:07.061Z,94.14
2018-12-06T11:09:07.052Z,94.03
2018-12-06T11:10:07.043Z,94.09
2018-12-06T11:11:07.034Z,93.28
2018-12-06T11:12:07.019Z,92.55
2018-12-06T11:13:07.004Z,92.66
2018-12-06T11:14:06.994Z,93.37
2018-12-06T11:15:06.985Z,92.87
2018-12-06T11:16:06.971Z,92.76
2018-12-06T11:17:06.959Z,92.96
2018-12-06T11:18:06.948Z,92.35
2018-12-06T11:19:06.938Z,91.94
2018-12-06T11:20:06.926Z,91.69
2018-12-06T11:21:06.917Z,92.21
2018-12-06T11:22:06.907Z,91.54
2018-12-06T11:23:06.895Z,92.66
2018-12-06T11:24:06.884Z,93.17
2018-12-06T11:25:06.872Z,93.48
2018-12-06T11:26:06.861Z,93.68
2018-12-06T11:27:06.849Z,93.89
2018-12-06T11:28:06.842Z,93.37
2018-12-06T11:29:06.827Z,93.48
2018-12-06T11:30:06.818Z,93.37
2018-12-06T11:31:06.806Z,93.99
2018-12-06T11:32:06.797Z,94.29
2018-12-06T11:33:06.783Z,94.29
2018-12-06T11:34:06.773Z,94.29
2018-12-06T11:35:06.768Z,94.19
2018-12-06T11:36:06.791Z,94.09
2018-12-06T11:37:06.743Z,94.29
2018-12-06T11:38:06.730Z,94.05
2018-12-06T11:39:06.717Z,93.74
2018-12-06T11:40:06.710Z,93.84
2018-12-06T11:41:06.694Z,93.99
2018-12-06T11:42:06.685Z,93.89
2018-12-06T11:43:06.671Z,93.99
2018-12-06T11:44:06.667Z,94.60
2018-12-06T11:45:06.650Z,94.70
2018-12-06T11:46:06.640Z,94.50
2018-12-06T11:47:06.629Z,94.40
2018-12-06T11:48:06.616Z,94.50
2018-12-06T11:49:06.606Z,94.60
2018-12-06T11:50:06.598Z,94.60
2018-12-06T11:51:06.583Z,94.91
2018-12-06T11:52:06.573Z,94.81
2018-12-06T11:53:06.562Z,95.16
2018-12-06T11:54:06.549Z,95.16
2018-12-06T11:55:06.545Z,95.16
2018-12-06T11:56:06.528Z,95.36
2018-12-06T11:57:06.518Z,95.47
2018-12-06T11:58:11.461Z,95.88
2018-12-06T11:59:06.495Z,95.88
2018-12-06T12:00:06.485Z,95.06
2018-12-06T12:01:06.474Z,95.26
2018-12-06T12:02:09.977Z,95.57
2018-12-06T12:03:06.452Z,95.47
2018-12-06T12:04:06.441Z,95.47
2018-12-06T12:05:06.427Z,95.57
2018-12-06T12:06:06.540Z,95.98
2018-12-06T12:07:06.435Z,95.47
2018-12-06T12:08:06.395Z,95.67
2018-12-06T12:09:06.386Z,95.81
2018-12-06T12:10:06.373Z,96.02
2018-12-06T12:11:06.362Z,96.02
2018-12-06T12:12:06.351Z,96.02
2018-12-06T12:13:06.341Z,96.02
2018-12-06T12:14:06.327Z,96.23
2018-12-06T12:15:06.317Z,96.23
2018-12-06T12:16:06.316Z,96.13
2018-12-06T12:17:06.300Z,96.13
2018-12-06T12:18:06.329Z,96.13
2018-12-06T12:19:06.277Z,96.23
2018-12-06T12:20:06.265Z,96.33
2018-12-06T12:21:06.251Z,96.13
2018-12-06T12:22:06.241Z,96.13
2018-12-06T12:23:06.227Z,96.02
2018-12-06T12:24:06.217Z,96.02
2018-12-06T12:25:06.209Z,96.13
2018-12-06T12:26:06.194Z,96.13
2018-12-06T12:27:06.184Z,96.43
2018-12-06T12:28:06.173Z,96.13
2018-12-06T12:29:06.167Z,96.23
2018-12-06T12:30:06.148Z,96.43
2018-12-06T12:31:06.154Z,96.43
2018-12-06T12:32:06.128Z,96.43
2018-12-06T12:33:06.117Z,96.53
2018-12-06T12:34:06.105Z,96.64
2018-12-06T12:35:06.092Z,96.33
2018-12-06T12:36:06.082Z,96.23
2018-12-06T12:37:06.072Z,96.23
2018-12-06T12:38:06.060Z,96.13
2018-12-06T12:39:06.073Z,96.33
2018-12-06T12:40:06.052Z,96.53
2018-12-06T12:41:06.026Z,96.64
2018-12-06T12:42:06.015Z,96.74
2018-12-06T12:43:06.011Z,96.64
2018-12-06T12:44:05.994Z,96.64
2018-12-06T12:45:05.980Z,96.64
2018-12-06T12:46:05.976Z,96.74
2018-12-06T12:47:05.974Z,96.84
2018-12-06T12:48:05.951Z,96.74
2018-12-06T12:49:05.938Z,96.84
2018-12-06T12:50:05.929Z,96.74
2018-12-06T12:51:05.913Z,96.94
2018-12-06T12:52:05.996Z,96.84